Latest Weather Observations for East Sale

IDV60801

Issued at 12:31 pm EST Wednesday 29 July 2015 (issued every 30 minutes, with the page automatically refreshed every 10 minutes)

About weather observations | Map of weather stations | Latest weather observations for VIC | Other Formats
Station Details ID: 085072 Name: EAST SALE AIRPORT Lat: -38.12 Lon: 147.13 Height: 4.6 m
Data from the previous 72 hours. | See also: Recent months at East Sale
Date/Time
EST
Temp
°C
App
Temp
°C
Dew
Point
Rel
Hum
%
Delta-T
°C
Wind Press
QNH
hPa
Press
MSL
hPa
Rain
since 9 am
mm
Dir
 
Spd
km/h
Gust
km/h
Spd
kts
Gust
kts
29/12:00pm 13.0 10.0 5.9 62 3.3 WNW 11 17 6 9 1031.9 1031.9 0.0
29/11:30am 11.8 9.0 5.0 63 3.1 WNW 9 15 5 8 1032.6 1032.6 0.0
29/11:00am 10.8 7.6 5.3 69 2.5 WNW 11 13 6 7 1033.1 1033.1 0.0
29/10:30am 10.0 7.1 4.4 68 2.5 W 9 11 5 6 1033.6 1033.6 0.0
29/09:00am 5.4 2.7 3.9 90 0.6 NW 7 9 4 5 1034.0 1034.0 0.0
29/08:30am 3.0 -0.3 2.6 97 0.2 WNW 9 11 5 6 1034.1 1034.1 0.0
29/07:30am 0.3 -3.0 0.0 98 0.1 WNW 7 9 4 5 1034.0 1034.0 0.0
29/07:00am 0.7 -2.9 0.4 98 0.1 W 9 11 5 6 1033.9 1033.9 0.0
29/06:30am 0.5 -3.2 0.1 97 0.1 NW 9 11 5 6 1033.5 1033.5 0.0
29/06:00am 0.6 -3.1 0.0 96 0.2 WNW 9 11 5 6 1033.3 1033.3 0.0
29/05:30am 1.0 -3.0 0.6 97 0.1 NW 11 11 6 6 1033.0 1033.0 0.0
29/05:00am 0.9 -2.7 0.5 97 0.1 WNW 9 11 5 6 1033.1 1033.1 0.0
29/04:30am 1.6 -1.9 1.3 98 0.1 WNW 9 11 5 6 1033.3 1033.3 0.0
29/04:00am 1.5 -2.0 1.1 97 0.1 WNW 9 11 5 6 1033.3 1033.3 0.0
29/03:30am 2.0 -1.4 1.6 97 0.2 W 9 11 5 6 1033.2 1033.2 0.0
29/03:00am 2.0 -1.5 1.3 95 0.3 NW 9 11 5 6 1033.3 1033.3 0.0
29/02:30am 1.7 -1.9 0.8 94 0.3 NW 9 11 5 6 1033.5 1033.5 0.0
29/02:00am 2.0 -1.5 1.3 95 0.3 NW 9 13 5 7 1033.8 1033.8 0.0
29/01:30am 3.4 0.1 2.7 95 0.3 NW 9 11 5 6 1033.9 1033.9 0.0
29/01:00am 4.0 0.8 3.3 95 0.3 NW 9 11 5 6 1033.8 1033.8 0.0
29/12:30am 3.9 -0.8 3.0 94 0.4 WNW 17 17 9 9 1033.9 1033.9 0.0
29/12:00am 4.5 0.6 3.6 94 0.4 NW 13 13 7 7 1034.1 1034.1 0.0
 
Date/Time
EST
Temp
°C
App
Temp
°C
Dew
Point
Rel
Hum
%
Delta-T
°C
Wind Press
QNH
hPa
Press
MSL
hPa
Rain
since 9 am
mm
Dir
 
Spd
km/h
Gust
km/h
Spd
kts
Gust
kts
28/11:30pm 5.4 2.0 4.2 92 0.5 NW 11 15 6 8 1034.1 1034.1 0.0
28/11:00pm 6.1 3.2 4.9 92 0.5 W 9 11 5 6 1034.2 1034.2 0.0
28/10:30pm 7.2 4.0 5.3 88 0.8 WSW 11 17 6 9 1034.2 1034.2 0.0
28/10:00pm 7.9 4.1 5.7 86 1.0 W 15 19 8 10 1033.9 1033.9 0.0
28/09:30pm 8.0 4.2 5.6 85 1.1 W 15 20 8 11 1033.9 1033.9 0.0
28/09:00pm 8.3 4.1 5.9 85 1.1 WSW 17 19 9 10 1034.0 1034.0 0.0
28/08:30pm 7.7 3.1 5.5 86 1.0 WSW 19 22 10 12 1034.0 1034.0 0.0
28/08:00pm 7.7 3.4 5.3 85 1.1 W 17 20 9 11 1033.9 1033.9 0.0
28/07:30pm 8.1 3.9 5.9 86 1.0 W 17 20 9 11 1033.9 1033.9 0.0
28/07:00pm 8.4 4.6 5.9 84 1.1 W 15 20 8 11 1033.8 1033.8 0.0
28/06:30pm 8.9 4.7 5.8 81 1.4 W 17 20 9 11 1033.4 1033.4 0.0
28/06:00pm 10.3 6.2 6.3 76 1.8 W 17 24 9 13 1033.2 1033.2 0.0
28/05:30pm 10.9 5.5 6.5 74 2.1 W 24 32 13 17 1032.8 1032.8 0.0
28/05:00pm 11.7 7.2 6.8 72 2.3 W 20 28 11 15 1032.6 1032.6 0.0
28/04:30pm 12.4 6.7 6.9 69 2.6 W 26 37 14 20 1032.5 1032.5 0.0
28/04:00pm 12.2 7.8 7.5 73 2.3 W 20 26 11 14 1032.7 1032.7 0.0
28/03:30pm 12.1 7.4 7.6 74 2.2 WSW 22 33 12 18 1032.5 1032.5 0.0
28/03:00pm 12.4 6.1 7.3 71 2.4 W 30 41 16 22 1032.4 1032.4 0.0
28/02:53pm 12.4 6.4 6.9 69 2.6 W 28 46 15 25 1032.4 1032.4 0.0
28/02:30pm 12.0 6.1 7.7 75 2.1 W 28 35 15 19 1032.3 1032.3 0.0
28/02:00pm 12.5 6.7 8.0 74 2.2 W 28 37 15 20 1032.5 1032.5 0.0
28/01:30pm 12.0 6.1 7.5 74 2.2 W 28 39 15 21 1032.6 1032.6 0.0
28/01:00pm 12.5 5.7 7.6 72 2.4 W 33 43 18 23 1032.7 1032.7 0.0
28/12:30pm 12.2 5.9 7.3 72 2.4 WSW 30 43 16 23 1033.0 1033.0 0.0
28/12:00pm 13.2 6.3 8.7 74 2.2 W 35 50 19 27 1033.2 1033.2 0.0
28/11:30am 12.1 5.8 7.6 74 2.2 W 30 39 16 21 1033.5 1033.5 0.0
28/11:00am 12.0 6.4 8.7 80 1.6 W 28 33 15 18 1033.8 1033.8 0.0
28/10:30am 11.6 5.6 8.5 81 1.5 W 30 41 16 22 1034.1 1034.1 0.0
28/10:00am 11.2 5.2 8.6 84 1.3 W 30 39 16 21 1033.9 1033.9 0.0
28/09:30am 10.5 5.2 8.3 86 1.1 W 26 39 14 21 1033.7 1033.7 0.0
28/09:00am 10.1 5.9 8.4 89 0.8 W 20 30 11 16 1033.5 1033.5 0.4
28/08:30am 8.9 4.8 7.7 92 0.6 W 19 24 10 13 1033.2 1033.2 0.4
28/08:00am 8.3 4.8 7.4 94 0.4 WNW 15 20 8 11 1032.9 1032.9 0.4
28/07:30am 8.5 4.7 7.4 93 0.5 W 17 20 9 11 1032.6 1032.6 0.4
28/07:00am 8.5 4.3 7.6 94 0.4 W 19 24 10 13 1032.1 1032.1 0.4
28/06:30am 8.2 4.0 7.4 95 0.4 W 19 26 10 14 1031.6 1031.6 0.4
28/06:00am 8.5 4.1 7.6 94 0.4 W 20 30 11 16 1031.2 1031.2 0.4
28/05:30am 8.3 3.5 7.4 94 0.4 W 22 28 12 15 1030.9 1030.9 0.4
28/05:00am 8.3 3.9 7.4 94 0.4 W 20 30 11 16 1030.5 1030.5 0.4
28/04:30am 8.4 3.6 7.2 92 0.6 W 22 28 12 15 1030.3 1030.3 0.4
28/04:00am 8.2 3.7 7.1 93 0.5 WNW 20 26 11 14 1030.1 1030.1 0.4
28/03:30am 8.5 3.2 7.0 90 0.7 W 24 30 13 16 1030.1 1030.1 0.4
28/03:00am 8.3 3.8 6.9 91 0.6 W 20 26 11 14 1029.8 1029.8 0.4
28/02:30am 8.3 3.8 6.9 91 0.6 W 20 26 11 14 1030.0 1030.0 0.4
28/02:00am 8.5 4.2 6.8 89 0.8 W 19 24 10 13 1029.9 1029.9 0.4
28/01:30am 8.9 4.5 6.7 86 1.0 W 19 24 10 13 1029.6 1029.6 0.4
28/01:00am 8.8 4.2 6.4 85 1.1 WNW 20 26 11 14 1029.4 1029.4 0.4
28/12:30am 8.6 4.1 6.1 84 1.1 WNW 19 24 10 13 1029.2 1029.2 0.4
28/12:00am 8.2 3.4 5.7 84 1.1 WNW 20 24 11 13 1029.2 1029.2 0.4
 
Date/Time
EST
Temp
°C
App
Temp
°C
Dew
Point
Rel
Hum
%
Delta-T
°C
Wind Press
QNH
hPa
Press
MSL
hPa
Rain
since 9 am
mm
Dir
 
Spd
km/h
Gust
km/h
Spd
kts
Gust
kts
27/11:30pm 8.1 3.9 5.6 84 1.1 WNW 17 19 9 10 1029.4 1029.4 0.4
27/11:00pm 8.2 3.6 5.7 84 1.1 WNW 19 24 10 13 1029.4 1029.4 0.4
27/10:30pm 8.2 3.6 5.8 85 1.1 W 19 22 10 12 1029.5 1029.5 0.4
27/10:00pm 8.3 4.2 6.1 86 1.0 WNW 17 20 9 11 1029.4 1029.4 0.4
27/09:30pm 8.4 3.8 6.4 87 0.9 W 20 26 11 14 1029.2 1029.2 0.4
27/09:00pm 8.6 5.0 6.6 87 0.9 W 15 20 8 11 1029.2 1029.2 0.4
27/08:30pm 9.0 5.3 6.3 83 1.2 W 15 19 8 10 1029.1 1029.1 0.2
27/08:00pm 8.4 4.2 5.9 84 1.1 WNW 17 20 9 11 1028.8 1028.8 0.2
27/07:30pm 8.2 4.1 6.3 88 0.9 WNW 17 20 9 11 1028.7 1028.7 0.2
27/07:00pm 8.5 3.2 6.8 89 0.8 WNW 24 30 13 16 1028.7 1028.7 0.2
27/06:30pm 8.7 3.2 5.8 82 1.3 WNW 24 35 13 19 1028.3 1028.3 0.0
27/06:00pm 8.9 3.4 6.0 82 1.3 WNW 24 32 13 17 1027.8 1027.8 0.0
27/05:30pm 8.8 2.6 6.1 83 1.2 WNW 28 35 15 19 1027.3 1027.3 0.0
27/05:00pm 9.5 3.1 6.9 84 1.2 W 30 41 16 22 1027.3 1027.3 0.0
27/04:30pm 9.8 3.6 6.2 78 1.7 W 28 41 15 22 1026.8 1026.8 0.0
27/04:00pm 10.6 3.5 6.4 75 2.0 W 33 50 18 27 1026.5 1026.5 0.0
27/03:30pm 11.0 2.7 6.0 71 2.3 W 39 50 21 27 1026.0 1026.0 0.0
27/03:25pm 11.2 2.8 5.7 69 2.5 W 39 57 21 31 1026.0 1026.0 0.0
27/03:00pm 11.4 3.1 6.1 70 2.5 W 39 56 21 30 1025.8 1025.8 0.0
27/02:54pm 10.9 3.0 6.1 72 2.2 W 37 56 20 30 1025.6 1025.6 0.0
27/02:30pm 10.9 1.6 6.1 72 2.2 W 44 57 24 31 1025.2 1025.2 0.0
27/02:00pm 10.8 2.9 6.0 72 2.2 W 37 50 20 27 1025.2 1025.2 0.0
27/01:30pm 11.6 3.4 6.5 71 2.4 W 39 54 21 29 1025.2 1025.2 0.0
27/01:00pm 10.5 1.1 5.5 71 2.3 W 44 57 24 31 1025.3 1025.3 0.0
27/12:30pm 11.0 2.0 6.2 72 2.2 W 43 63 23 34 1025.5 1025.5 0.0
27/12:17pm 10.9 2.5 5.4 69 2.5 W 39 57 21 31 1025.7 1025.7 0.0
27/12:00pm 10.2 0.4 5.4 72 2.2 W 46 57 25 31 1025.7 1025.7 0.0
27/11:30am 10.1 0.8 5.7 74 2.0 W 44 57 24 31 1025.9 1025.9 0.0
27/11:00am 9.5 1.5 5.7 77 1.7 W 37 50 20 27 1026.3 1026.3 0.0
27/10:30am 8.9 1.8 5.5 79 1.5 W 32 50 17 27 1026.3 1026.3 0.0
27/10:00am 8.4 0.3 5.3 81 1.4 W 37 52 20 28 1025.9 1025.9 0.0
27/09:30am 8.2 1.1 5.3 82 1.3 W 32 43 17 23 1025.8 1025.8 0.0
27/09:00am 7.1 -0.4 4.6 84 1.1 W 33 43 18 23 1025.2 1025.2 0.2
27/08:30am 6.9 -0.1 4.2 83 1.2 W 30 41 16 22 1024.7 1024.7 0.2
27/08:00am 6.4 -0.3 3.9 84 1.1 W 28 35 15 19 1024.4 1024.4 0.2
27/07:30am 5.7 -1.4 3.5 86 0.9 W 30 41 16 22 1023.8 1023.8 0.2
27/07:00am 5.7 -0.3 3.2 84 1.0 W 24 32 13 17 1023.4 1023.4 0.2
27/06:30am 6.0 0.4 3.3 83 1.1 W 22 32 12 17 1023.3 1023.3 0.2
27/06:00am 5.7 0.1 3.2 84 1.0 W 22 30 12 16 1022.7 1022.7 0.2
27/05:30am 5.7 -1.0 3.4 85 1.0 W 28 41 15 22 1022.2 1022.2 0.2
27/05:00am 5.7 -0.2 3.7 87 0.8 W 24 33 13 18 1021.9 1021.9 0.2
27/04:30am 6.0 -0.3 3.7 85 1.0 W 26 35 14 19 1021.9 1021.9 0.2
27/04:00am 5.8 -0.9 3.5 85 1.0 W 28 35 15 19 1021.4 1021.4 0.2
27/03:30am 5.7 -0.3 3.4 85 1.0 W 24 32 13 17 1021.1 1021.1 0.2
27/03:00am 6.1 -1.0 3.4 83 1.1 W 30 43 16 23 1020.8 1020.8 0.2
27/02:30am 6.0 -1.1 3.5 84 1.0 WNW 30 35 16 19 1020.6 1020.6 0.2
27/02:00am 6.1 -1.3 3.8 85 1.0 W 32 43 17 23 1020.3 1020.3 0.0
27/01:30am 6.1 -2.7 3.8 85 1.0 W 39 46 21 25 1019.8 1019.8 0.0
27/01:00am 7.0 -1.5 3.3 77 1.6 W 37 50 20 27 1019.5 1019.5 0.0
27/12:53am 7.2 -1.7 3.1 75 1.7 W 39 57 21 31 1019.3 1019.3 0.0
27/12:30am 7.5 -1.5 2.4 70 2.1 W 39 54 21 29 1018.8 1018.8 0.0
27/12:00am 7.8 -0.8 2.5 69 2.2 W 37 48 20 26 1018.8 1018.8 0.0
 
Date/Time
EST
Temp
°C
App
Temp
°C
Dew
Point
Rel
Hum
%
Delta-T
°C
Wind Press
QNH
hPa
Press
MSL
hPa
Rain
since 9 am
mm
Dir
 
Spd
km/h
Gust
km/h
Spd
kts
Gust
kts
26/11:30pm 7.8 -0.9 2.1 67 2.4 W 37 52 20 28 1018.3 1018.3 0.0
26/11:00pm 8.2 -0.5 2.0 65 2.6 W 37 50 20 27 1018.3 1018.3 0.0
26/10:30pm 8.2 -0.9 2.0 65 2.6 W 39 56 21 30 1017.8 1017.8 0.0
26/10:00pm 8.1 -1.4 1.7 64 2.6 WNW 41 54 22 29 1017.6 1017.6 0.0
26/09:30pm 8.4 -0.4 1.3 61 2.9 WNW 37 50 20 27 1017.6 1017.6 0.0
26/09:00pm 8.2 -0.9 1.6 63 2.7 WNW 39 59 21 32 1017.0 1017.0 0.0
26/08:46pm 8.4 -0.8 1.1 60 3.0 WNW 39 57 21 31 1016.8 1016.8 0.0
26/08:30pm 8.2 -0.3 1.1 61 2.9 WNW 35 48 19 26 1016.6 1016.6 0.0
26/08:23pm 7.9 -0.6 1.1 62 2.7 WNW 35 54 19 29 1016.6 1016.6 0.0
26/08:00pm 7.7 -1.9 1.1 63 2.7 WNW 41 50 22 27 1016.1 1016.1 0.0
26/07:45pm 7.5 -3.0 1.4 65 2.5 WNW 46 65 25 35 1015.5 1015.5 0.0
26/07:30pm 7.5 -3.7 1.6 66 2.4 WNW 50 65 27 35 1015.2 1015.2 0.0
26/07:05pm 7.5 -3.4 1.6 66 2.4 WNW 48 67 26 36 1015.0 1015.0 0.0
26/07:00pm 7.7 -3.6 1.3 64 2.6 WNW 50 67 27 36 1015.1 1015.1 0.0
26/06:45pm 7.8 -1.4 1.0 62 2.7 WNW 39 57 21 31 1014.9 1014.9 0.0
26/06:30pm 7.6 -2.0 1.0 63 2.6 WNW 41 52 22 28 1014.6 1014.6 0.0
26/06:00pm 7.9 -2.1 0.9 61 2.8 WNW 43 54 23 29 1014.4 1014.4 0.0
26/05:53pm 7.9 -2.4 0.6 60 2.9 WNW 44 63 24 34 1014.1 1014.1 0.0
26/05:30pm 8.1 -4.1 0.6 59 3.0 WNW 54 65 29 35 1013.4 1013.4 0.0
26/05:03pm 8.5 -2.1 0.7 58 3.1 WNW 46 65 25 35 1013.2 1013.2 0.0
26/05:00pm 8.6 -3.1 0.8 58 3.1 WNW 52 65 28 35 1013.4 1013.4 0.0
26/04:48pm 9.1 -3.0 0.8 56 3.4 WNW 54 72 29 39 1013.4 1013.4 0.0
26/04:44pm 9.2 -2.1 0.9 56 3.4 WNW 50 72 27 39 1013.3 1013.3 0.0
26/04:31pm 9.3 -0.3 1.2 57 3.3 WNW 41 59 22 32 1013.1 1013.1 0.0
26/04:30pm 9.3 0.1 1.5 58 3.2 WNW 39 50 21 27 1013.1 1013.1 0.0
26/04:00pm 9.2 -1.3 1.6 59 3.1 WNW 46 63 25 34 1012.9 1012.9 0.0
26/03:30pm 9.3 -0.6 1.7 59 3.2 WNW 43 61 23 33 1012.9 1012.9 0.0
26/03:03pm 9.5 -2.0 2.4 61 3.0 WNW 52 70 28 38 1012.7 1012.7 0.0
26/03:00pm 9.3 -2.6 1.9 60 3.1 WNW 54 70 29 38 1012.4 1012.4 0.0
26/02:47pm 9.2 -3.2 2.5 63 2.8 WNW 57 76 31 41 1012.5 1012.5 0.0
26/02:39pm 9.6 -1.0 1.0 55 3.5 W 46 70 25 38 1012.2 1012.2 0.0
26/02:36pm 9.7 0.4 0.9 54 3.6 W 39 69 21 37 1012.1 1012.1 0.0
26/02:30pm 9.8 1.0 1.5 56 3.4 W 37 46 20 25 1012.1 1012.1 0.0
26/02:07pm 9.5 1.2 1.9 59 3.2 W 35 54 19 29 1011.8 1011.8 0.0
26/02:00pm 9.6 0.5 1.8 58 3.3 W 39 54 21 29 1011.6 1011.6 0.0
26/01:44pm 9.2 0.9 1.9 60 3.0 W 35 54 19 29 1011.5 1011.5 0.0
26/01:30pm 9.3 1.5 3.1 65 2.7 W 33 44 18 24 1011.4 1011.4 0.0
26/01:08pm 8.7 -0.2 2.9 67 2.5 WSW 39 57 21 31 1011.4 1011.4 0.0
26/01:00pm 8.5 -0.8 2.7 67 2.4 WSW 41 57 22 31 1011.3 1011.3 0.0
26/12:52pm 8.9 -1.8 2.3 63 2.8 W 48 67 26 36 1011.3 1011.3 0.0
26/12:33pm 11.6 -0.1 1.0 48 4.4 WNW 52 74 28 40 1010.5 1010.5 0.0

Other Formats:

Comma delimited format used in spreadsheet applications
http://www.bom.gov.au/fwo/IDV60801/IDV60801.94907.axf

JavaScript Object Notation format (JSON) in row-major order
http://www.bom.gov.au/fwo/IDV60801/IDV60801.94907.json